sensor_id;sensor_type;location;lat;lon;timestamp;pressure;altitude;pressure_sealevel;temperature;humidity
69306;BME280;56427;51.580;4.656;2023-01-29T00:01:55;103040.19;;;-0.40;100.00
69306;BME280;56427;51.580;4.656;2023-01-29T00:04:21;103040.19;;;-0.42;100.00
69306;BME280;56427;51.580;4.656;2023-01-29T00:06:46;103039.34;;;-0.44;100.00
69306;BME280;56427;51.580;4.656;2023-01-29T00:09:12;103043.59;;;-0.38;100.00
69306;BME280;56427;51.580;4.656;2023-01-29T00:11:38;103037.63;;;-0.31;100.00
69306;BME280;56427;51.580;4.656;2023-01-29T00:14:04;103035.91;;;-0.23;100.00
69306;BME280;56427;51.580;4.656;2023-01-29T00:16:30;103026.53;;;-0.14;100.00
69306;BME280;56427;51.580;4.656;2023-01-29T00:18:55;103028.22;;;-0.10;100.00
69306;BME280;56427;51.580;4.656;2023-01-29T00:21:21;103029.94;;;-0.12;100.00
69306;BME280;56427;51.580;4.656;2023-01-29T00:23:47;103036.72;;;-0.08;100.00
69306;BME280;56427;51.580;4.656;2023-01-29T00:26:14;103034.19;;;-0.17;100.00
69306;BME280;56427;51.580;4.656;2023-01-29T00:28:40;103023.97;;;-0.08;100.00
69306;BME280;56427;51.580;4.656;2023-01-29T00:31:10;103021.34;;;0.10;100.00
69306;BME280;56427;51.580;4.656;2023-01-29T00:33:35;103012.03;;;-0.03;100.00
69306;BME280;56427;51.580;4.656;2023-01-29T00:36:02;103012.03;;;-0.02;100.00
69306;BME280;56427;51.580;4.656;2023-01-29T00:38:28;103011.16;;;-0.05;100.00
69306;BME280;56427;51.580;4.656;2023-01-29T00:40:53;103018.00;;;-0.07;100.00
69306;BME280;56427;51.580;4.656;2023-01-29T00:43:37;103007.78;;;-0.13;100.00
69306;BME280;56427;51.580;4.656;2023-01-29T00:46:21;103004.41;;;-0.15;100.00
69306;BME280;56427;51.580;4.656;2023-01-29T00:48:46;102998.47;;;-0.17;100.00
69306;BME280;56427;51.580;4.656;2023-01-29T00:51:11;102989.09;;;-0.12;100.00
69306;BME280;56427;51.580;4.656;2023-01-29T00:53:37;102993.34;;;-0.16;100.00
69306;BME280;56427;51.580;4.656;2023-01-29T00:56:02;102986.47;;;0.05;100.00
69306;BME280;56427;51.580;4.656;2023-01-29T00:58:27;102991.63;;;-0.12;100.00
69306;BME280;56427;51.580;4.656;2023-01-29T01:00:59;102991.66;;;-0.20;100.00
69306;BME280;56427;51.580;4.656;2023-01-29T01:03:25;102987.44;;;-0.27;100.00
69306;BME280;56427;51.580;4.656;2023-01-29T01:06:04;102989.09;;;-0.15;100.00
69306;BME280;56427;51.580;4.656;2023-01-29T01:08:30;102991.63;;;-0.02;100.00
69306;BME280;56427;51.580;4.656;2023-01-29T01:11:14;102987.34;;;-0.04;100.00
69306;BME280;56427;51.580;4.656;2023-01-29T01:13:40;102987.34;;;-0.01;100.00
69306;BME280;56427;51.580;4.656;2023-01-29T01:16:13;102991.63;;;-0.14;100.00
69306;BME280;56427;51.580;4.656;2023-01-29T01:18:39;102978.88;;;-0.08;100.00
69306;BME280;56427;51.580;4.656;2023-01-29T01:21:04;102969.56;;;-0.21;100.00
69306;BME280;56427;51.580;4.656;2023-01-29T01:23:30;102973.75;;;-0.11;100.00
69306;BME280;56427;51.580;4.656;2023-01-29T01:25:56;102973.75;;;-0.08;100.00
69306;BME280;56427;51.580;4.656;2023-01-29T01:28:21;102969.50;;;-0.06;100.00
69306;BME280;56427;51.580;4.656;2023-01-29T01:30:46;102979.69;;;-0.03;100.00
69306;BME280;56427;51.580;4.656;2023-01-29T01:33:12;102977.13;;;0.02;100.00
69306;BME280;56427;51.580;4.656;2023-01-29T01:35:38;102976.25;;;0.03;100.00
69306;BME280;56427;51.580;4.656;2023-01-29T01:38:03;102978.81;;;0.03;100.00
69306;BME280;56427;51.580;4.656;2023-01-29T01:40:29;102978.78;;;0.05;100.00
69306;BME280;56427;51.580;4.656;2023-01-29T01:42:57;102975.38;;;0.12;100.00
69306;BME280;56427;51.580;4.656;2023-01-29T01:45:27;102976.22;;;0.11;100.00
69306;BME280;56427;51.580;4.656;2023-01-29T01:53:08;102992.25;;;0.38;100.00
69306;BME280;56427;51.580;4.656;2023-01-29T01:55:37;102997.53;;;0.05;100.00
69306;BME280;56427;51.580;4.656;2023-01-29T01:58:10;103002.66;;;0.04;100.00
69306;BME280;56427;51.580;4.656;2023-01-29T02:00:36;102994.19;;;-0.11;100.00
69306;BME280;56427;51.580;4.656;2023-01-29T02:03:03;103000.19;;;-0.20;100.00
69306;BME280;56427;51.580;4.656;2023-01-29T02:05:48;102998.38;;;0.03;100.00
69306;BME280;56427;51.580;4.656;2023-01-29T02:08:38;102995.03;;;-0.12;100.00
69306;BME280;56427;51.580;4.656;2023-01-29T02:11:25;103004.38;;;-0.05;100.00
69306;BME280;56427;51.580;4.656;2023-01-29T02:13:51;103003.50;;;-0.05;100.00
69306;BME280;56427;51.580;4.656;2023-01-29T02:16:19;103001.78;;;0.06;100.00
69306;BME280;56427;51.580;4.656;2023-01-29T02:18:45;103000.91;;;0.10;100.00
69306;BME280;56427;51.580;4.656;2023-01-29T02:22:03;103005.16;;;0.13;100.00
69306;BME280;56427;51.580;4.656;2023-01-29T02:26:53;103000.09;;;0.08;100.00
69306;BME280;56427;51.580;4.656;2023-01-29T02:29:28;103001.84;;;-0.08;100.00
69306;BME280;56427;51.580;4.656;2023-01-29T02:32:08;102993.25;;;0.09;100.00
69306;BME280;56427;51.580;4.656;2023-01-29T02:37:54;102998.28;;;0.24;100.00
69306;BME280;56427;51.580;4.656;2023-01-29T02:40:35;102987.25;;;0.19;100.00
69306;BME280;56427;51.580;4.656;2023-01-29T02:43:13;102997.44;;;0.25;100.00
69306;BME280;56427;51.580;4.656;2023-01-29T02:48:29;102988.19;;;0.03;100.00
69306;BME280;56427;51.580;4.656;2023-01-29T02:51:00;102984.72;;;0.14;100.00
69306;BME280;56427;51.580;4.656;2023-01-29T02:53:51;102979.66;;;0.08;100.00
69306;BME280;56427;51.580;4.656;2023-01-29T02:56:25;102985.59;;;0.13;100.00
69306;BME280;56427;51.580;4.656;2023-01-29T02:59:03;102987.25;;;0.14;100.00
69306;BME280;56427;51.580;4.656;2023-01-29T03:01:37;102978.78;;;0.12;100.00
69306;BME280;56427;51.580;4.656;2023-01-29T03:04:13;102978.78;;;0.11;100.00
69306;BME280;56427;51.580;4.656;2023-01-29T03:06:42;102982.13;;;0.19;100.00
69306;BME280;56427;51.580;4.656;2023-01-29T03:09:14;102976.19;;;0.18;100.00
69306;BME280;56427;51.580;4.656;2023-01-29T03:11:47;102975.25;;;0.32;100.00
69306;BME280;56427;51.580;4.656;2023-01-29T03:14:24;102968.50;;;0.25;100.00
69306;BME280;56427;51.580;4.656;2023-01-29T03:17:13;102963.41;;;0.25;100.00
69306;BME280;56427;51.580;4.656;2023-01-29T03:19:41;102961.72;;;0.19;100.00
69306;BME280;56427;51.580;4.656;2023-01-29T03:22:10;102961.69;;;0.22;100.00
69306;BME280;56427;51.580;4.656;2023-01-29T03:24:51;102974.44;;;0.31;100.00
69306;BME280;56427;51.580;4.656;2023-01-29T03:27:41;102969.28;;;0.34;100.00
69306;BME280;56427;51.580;4.656;2023-01-29T03:30:27;102977.81;;;0.32;100.00
69306;BME280;56427;51.580;4.656;2023-01-29T03:33:15;102981.19;;;0.40;100.00
69306;BME280;56427;51.580;4.656;2023-01-29T03:35:48;102980.38;;;0.32;100.00
69306;BME280;56427;51.580;4.656;2023-01-29T03:38:16;102976.06;;;0.42;100.00
69306;BME280;56427;51.580;4.656;2023-01-29T03:40:57;102971.81;;;0.39;100.00
69306;BME280;56427;51.580;4.656;2023-01-29T03:43:51;102976.09;;;0.35;100.00
69306;BME280;56427;51.580;4.656;2023-01-29T03:49:55;102961.59;;;0.38;100.00
69306;BME280;56427;51.580;4.656;2023-01-29T03:52:00;102959.81;;;0.50;100.00
69306;BME280;56427;51.580;4.656;2023-01-29T03:57:06;102974.31;;;0.48;100.00
69306;BME280;56427;51.580;4.656;2023-01-29T03:59:44;102960.63;;;0.59;100.00
69306;BME280;56427;51.580;4.656;2023-01-29T04:02:35;102950.41;;;0.54;100.00
69306;BME280;56427;51.580;4.656;2023-01-29T04:05:10;102940.22;;;0.52;100.00
69306;BME280;56427;51.580;4.656;2023-01-29T04:07:39;102931.72;;;0.50;100.00
69306;BME280;56427;51.580;4.656;2023-01-29T04:10:14;102942.81;;;0.48;100.00
69306;BME280;56427;51.580;4.656;2023-01-29T04:12:55;102941.09;;;0.48;100.00
69306;BME280;56427;51.580;4.656;2023-01-29T04:15:24;102940.28;;;0.46;100.00
69306;BME280;56427;51.580;4.656;2023-01-29T04:17:51;102947.06;;;0.46;100.00
69306;BME280;56427;51.580;4.656;2023-01-29T04:20:19;102952.16;;;0.49;100.00
69306;BME280;56427;51.580;4.656;2023-01-29T04:22:49;102947.88;;;0.54;100.00
69306;BME280;56427;51.580;4.656;2023-01-29T04:25:17;102941.06;;;0.54;100.00
69306;BME280;56427;51.580;4.656;2023-01-29T04:27:59;102941.94;;;0.49;100.00
69306;BME280;56427;51.580;4.656;2023-01-29T04:30:41;102930.13;;;0.34;100.00
69306;BME280;56427;51.580;4.656;2023-01-29T04:33:20;102930.91;;;0.44;100.00
69306;BME280;56427;51.580;4.656;2023-01-29T04:49:19;102890.78;;;0.60;100.00
69306;BME280;56427;51.580;4.656;2023-01-29T04:59:47;102889.84;;;0.65;100.00
69306;BME280;56427;51.580;4.656;2023-01-29T05:02:15;102887.25;;;0.73;100.00
69306;BME280;56427;51.580;4.656;2023-01-29T05:04:43;102888.09;;;0.70;100.00
69306;BME280;56427;51.580;4.656;2023-01-29T05:07:13;102887.09;;;0.90;100.00
69306;BME280;56427;51.580;4.656;2023-01-29T05:09:41;102878.66;;;0.80;100.00
69306;BME280;56427;51.580;4.656;2023-01-29T05:12:10;102878.66;;;0.77;100.00
69306;BME280;56427;51.580;4.656;2023-01-29T05:14:38;102876.03;;;0.89;100.00
69306;BME280;56427;51.580;4.656;2023-01-29T05:17:17;102867.56;;;0.83;100.00
69306;BME280;56427;51.580;4.656;2023-01-29T05:19:44;102875.22;;;0.84;100.00
69306;BME280;56427;51.580;4.656;2023-01-29T05:22:12;102859.91;;;0.81;100.00
69306;BME280;56427;51.580;4.656;2023-01-29T05:24:39;102848.00;;;0.79;100.00
69306;BME280;56427;51.580;4.656;2023-01-29T05:27:04;102842.81;;;0.86;100.00
69306;BME280;56427;51.580;4.656;2023-01-29T05:29:48;102841.16;;;0.82;100.00
69306;BME280;56427;51.580;4.656;2023-01-29T05:32:14;102849.72;;;0.75;100.00
69306;BME280;56427;51.580;4.656;2023-01-29T05:34:40;102843.72;;;0.82;100.00
69306;BME280;56427;51.580;4.656;2023-01-29T05:37:06;102848.84;;;0.82;100.00
69306;BME280;56427;51.580;4.656;2023-01-29T05:39:31;102840.28;;;0.83;100.00
69306;BME280;56427;51.580;4.656;2023-01-29T05:41:57;102849.56;;;0.92;100.00
69306;BME280;56427;51.580;4.656;2023-01-29T05:44:22;102843.69;;;0.84;100.00
69306;BME280;56427;51.580;4.656;2023-01-29T05:46:49;102853.06;;;0.83;100.00
69306;BME280;56427;51.580;4.656;2023-01-29T05:49:16;102861.50;;;0.90;100.00
69306;BME280;56427;51.580;4.656;2023-01-29T05:51:42;102866.63;;;0.90;100.00
69306;BME280;56427;51.580;4.656;2023-01-29T05:54:10;102861.53;;;0.88;100.00
69306;BME280;56427;51.580;4.656;2023-01-29T05:56:36;102857.19;;;0.97;100.00
69306;BME280;56427;51.580;4.656;2023-01-29T05:59:01;102865.72;;;0.97;100.00
69306;BME280;56427;51.580;4.656;2023-01-29T06:01:27;102854.63;;;0.97;100.00
69306;BME280;56427;51.580;4.656;2023-01-29T06:03:53;102850.28;;;1.05;100.00
69306;BME280;56427;51.580;4.656;2023-01-29T06:06:19;102857.97;;;1.02;100.00
69306;BME280;56427;51.580;4.656;2023-01-29T06:08:45;102862.31;;;0.94;100.00
69306;BME280;56427;51.580;4.656;2023-01-29T06:11:11;102860.69;;;0.89;100.00
69306;BME280;56427;51.580;4.656;2023-01-29T06:13:37;102864.84;;;0.98;100.00
69306;BME280;56427;51.580;4.656;2023-01-29T06:16:04;102861.44;;;0.99;100.00
69306;BME280;56427;51.580;4.656;2023-01-29T06:18:31;102861.38;;;1.05;100.00
69306;BME280;56427;51.580;4.656;2023-01-29T06:20:59;102858.75;;;1.08;100.00
69306;BME280;56427;51.580;4.656;2023-01-29T06:23:25;102861.28;;;1.12;100.00
69306;BME280;56427;51.580;4.656;2023-01-29T06:25:50;102859.66;;;1.04;100.00
69306;BME280;56427;51.580;4.656;2023-01-29T06:28:15;102859.72;;;1.00;100.00
69306;BME280;56427;51.580;4.656;2023-01-29T06:30:41;102853.75;;;0.99;100.00
69306;BME280;56427;51.580;4.656;2023-01-29T06:33:06;102857.97;;;1.03;100.00
69306;BME280;56427;51.580;4.656;2023-01-29T06:35:32;102861.25;;;1.15;100.00
69306;BME280;56427;51.580;4.656;2023-01-29T06:37:57;102850.25;;;1.09;100.00
69306;BME280;56427;51.580;4.656;2023-01-29T06:40:22;102854.47;;;1.14;100.00
69306;BME280;56427;51.580;4.656;2023-01-29T06:42:47;102842.53;;;1.14;100.00
69306;BME280;56427;51.580;4.656;2023-01-29T06:45:13;102846.09;;;0.99;100.00
69306;BME280;56427;51.580;4.656;2023-01-29T06:47:38;102851.13;;;1.07;100.00
69306;BME280;56427;51.580;4.656;2023-01-29T06:50:04;102849.44;;;1.06;100.00
69306;BME280;56427;51.580;4.656;2023-01-29T06:52:29;102851.03;;;1.13;100.00
69306;BME280;56427;51.580;4.656;2023-01-29T06:54:55;102840.00;;;1.09;100.00
69306;BME280;56427;51.580;4.656;2023-01-29T06:57:21;102851.16;;;1.04;100.00
69306;BME280;56427;51.580;4.656;2023-01-29T06:59:46;102846.84;;;1.07;100.00
69306;BME280;56427;51.580;4.656;2023-01-29T07:02:12;102841.72;;;1.09;100.00
69306;BME280;56427;51.580;4.656;2023-01-29T07:04:37;102840.03;;;1.08;100.00
69306;BME280;56427;51.580;4.656;2023-01-29T07:07:04;102843.41;;;1.08;100.00
69306;BME280;56427;51.580;4.656;2023-01-29T07:09:30;102842.56;;;1.09;100.00
69306;BME280;56427;51.580;4.656;2023-01-29T07:11:55;102845.19;;;1.03;100.00
69306;BME280;56427;51.580;4.656;2023-01-29T07:14:21;102835.03;;;0.97;100.00
69306;BME280;56427;51.580;4.656;2023-01-29T07:16:46;102831.53;;;1.04;100.00
69306;BME280;56427;51.580;4.656;2023-01-29T07:19:11;102837.47;;;1.06;100.00
69306;BME280;56427;51.580;4.656;2023-01-29T07:21:37;102840.06;;;1.05;100.00
69306;BME280;56427;51.580;4.656;2023-01-29T07:24:02;102840.06;;;1.05;100.00
69306;BME280;56427;51.580;4.656;2023-01-29T07:26:27;102843.53;;;1.01;100.00
69306;BME280;56427;51.580;4.656;2023-01-29T07:28:53;102838.41;;;0.99;100.00
69306;BME280;56427;51.580;4.656;2023-01-29T07:31:19;102842.47;;;1.19;100.00
69306;BME280;56427;51.580;4.656;2023-01-29T07:33:44;102840.84;;;1.08;100.00
69306;BME280;56427;51.580;4.656;2023-01-29T07:36:11;102832.38;;;1.05;100.00
69306;BME280;56427;51.580;4.656;2023-01-29T07:38:36;102840.78;;;1.15;100.00
69306;BME280;56427;51.580;4.656;2023-01-29T07:41:02;102844.28;;;1.09;100.00
69306;BME280;56427;51.580;4.656;2023-01-29T07:43:27;102847.69;;;1.09;100.00
69306;BME280;56427;51.580;4.656;2023-01-29T07:45:52;102842.59;;;1.06;100.00
69306;BME280;56427;51.580;4.656;2023-01-29T07:48:18;102842.50;;;1.17;100.00
69306;BME280;56427;51.580;4.656;2023-01-29T07:50:44;102842.53;;;1.14;100.00
69306;BME280;56427;51.580;4.656;2023-01-29T07:53:13;102838.19;;;1.19;100.00
69306;BME280;56427;51.580;4.656;2023-01-29T07:55:39;102838.94;;;1.27;100.00
69306;BME280;56427;51.580;4.656;2023-01-29T07:58:05;102825.31;;;1.27;100.00
69306;BME280;56427;51.580;4.656;2023-01-29T08:00:31;102835.38;;;1.41;100.00
69306;BME280;56427;51.580;4.656;2023-01-29T08:03:08;102831.31;;;1.24;100.00
69306;BME280;56427;51.580;4.656;2023-01-29T08:05:34;102837.22;;;1.29;100.00
69306;BME280;56427;51.580;4.656;2023-01-29T08:08:00;102833.84;;;1.27;100.00
69306;BME280;56427;51.580;4.656;2023-01-29T08:10:25;102827.78;;;1.35;100.00
69306;BME280;56427;51.580;4.656;2023-01-29T08:12:58;102833.00;;;1.25;100.00
69306;BME280;56427;51.580;4.656;2023-01-29T08:15:26;102829.53;;;1.29;100.00
69306;BME280;56427;51.580;4.656;2023-01-29T08:17:52;102824.38;;;1.33;100.00
69306;BME280;56427;51.580;4.656;2023-01-29T08:20:19;102821.03;;;1.29;100.00
69306;BME280;56427;51.580;4.656;2023-01-29T08:22:44;102819.19;;;1.40;100.00
69306;BME280;56427;51.580;4.656;2023-01-29T08:25:10;102820.00;;;1.42;100.00
69306;BME280;56427;51.580;4.656;2023-01-29T08:27:36;102804.59;;;1.47;100.00
69306;BME280;56427;51.580;4.656;2023-01-29T08:30:02;102804.59;;;1.47;100.00
69306;BME280;56427;51.580;4.656;2023-01-29T08:32:28;102809.72;;;1.45;100.00
69306;BME280;56427;51.580;4.656;2023-01-29T08:34:53;102808.00;;;1.47;100.00
69306;BME280;56427;51.580;4.656;2023-01-29T08:37:18;102808.84;;;1.48;100.00
69306;BME280;56427;51.580;4.656;2023-01-29T08:39:43;102802.91;;;1.46;100.00
69306;BME280;56427;51.580;4.656;2023-01-29T08:42:09;102806.22;;;1.53;100.00
69306;BME280;56427;51.580;4.656;2023-01-29T08:44:34;102802.91;;;1.44;100.00
69306;BME280;56427;51.580;4.656;2023-01-29T08:46:59;102807.91;;;1.55;100.00
69306;BME280;56427;51.580;4.656;2023-01-29T08:49:25;102803.63;;;1.56;100.00
69306;BME280;56427;51.580;4.656;2023-01-29T08:51:50;102806.13;;;1.59;100.00
69306;BME280;56427;51.580;4.656;2023-01-29T08:54:16;102801.03;;;1.57;100.00
69306;BME280;56427;51.580;4.656;2023-01-29T08:56:41;102801.03;;;1.57;100.00
69306;BME280;56427;51.580;4.656;2023-01-29T08:59:08;102791.75;;;1.52;100.00
69306;BME280;56427;51.580;4.656;2023-01-29T09:01:34;102781.31;;;1.64;100.00
69306;BME280;56427;51.580;4.656;2023-01-29T09:03:59;102783.81;;;1.70;100.00
69306;BME280;56427;51.580;4.656;2023-01-29T09:06:24;102792.31;;;1.72;100.00
69306;BME280;56427;51.580;4.656;2023-01-29T09:08:50;102792.13;;;1.84;100.00
69306;BME280;56427;51.580;4.656;2023-01-29T09:11:15;102783.75;;;1.75;100.00
69306;BME280;56427;51.580;4.656;2023-01-29T09:13:40;102786.97;;;1.88;100.00
69306;BME280;56427;51.580;4.656;2023-01-29T09:16:06;102782.59;;;1.94;100.00
69306;BME280;56427;51.580;4.656;2023-01-29T09:18:31;102793.91;;;1.81;100.00
69306;BME280;56427;51.580;4.656;2023-01-29T09:20:57;102794.66;;;1.86;100.00
69306;BME280;56427;51.580;4.656;2023-01-29T09:23:22;102800.56;;;1.91;100.00
69306;BME280;56427;51.580;4.656;2023-01-29T09:25:48;102798.94;;;1.86;100.00
69306;BME280;56427;51.580;4.656;2023-01-29T09:28:14;102795.34;;;1.97;100.00
69306;BME280;56427;51.580;4.656;2023-01-29T09:30:41;102796.13;;;2.02;100.00
69306;BME280;56427;51.580;4.656;2023-01-29T09:33:07;102790.16;;;2.00;100.00
69306;BME280;56427;51.580;4.656;2023-01-29T09:35:33;102795.28;;;2.00;100.00
69306;BME280;56427;51.580;4.656;2023-01-29T09:37:58;102795.97;;;2.12;100.00
69306;BME280;56427;51.580;4.656;2023-01-29T09:40:25;102788.19;;;2.18;100.00
69306;BME280;56427;51.580;4.656;2023-01-29T09:43:03;102786.44;;;2.20;100.00
69306;BME280;56427;51.580;4.656;2023-01-29T09:45:31;102787.34;;;2.17;100.00
69306;BME280;56427;51.580;4.656;2023-01-29T09:48:02;102787.16;;;2.28;100.00
69306;BME280;56427;51.580;4.656;2023-01-29T09:50:41;102783.81;;;2.23;100.00
69306;BME280;56427;51.580;4.656;2023-01-29T09:53:26;102781.25;;;2.25;100.00
69306;BME280;56427;51.580;4.656;2023-01-29T09:56:01;102786.38;;;2.25;100.00
69306;BME280;56427;51.580;4.656;2023-01-29T09:58:32;102772.66;;;2.29;100.00
69306;BME280;56427;51.580;4.656;2023-01-29T10:01:26;102776.91;;;2.28;100.00
69306;BME280;56427;51.580;4.656;2023-01-29T10:04:19;102769.06;;;2.37;100.00
69306;BME280;56427;51.580;4.656;2023-01-29T10:19:01;102763.00;;;2.42;100.00
69306;BME280;56427;51.580;4.656;2023-01-29T10:24:22;102768.59;;;2.64;100.00
69306;BME280;56427;51.580;4.656;2023-01-29T10:26:51;102765.28;;;2.58;100.00
69306;BME280;56427;51.580;4.656;2023-01-29T10:29:19;102766.84;;;2.66;100.00
69306;BME280;56427;51.580;4.656;2023-01-29T10:31:49;102762.72;;;2.58;100.00
69306;BME280;56427;51.580;4.656;2023-01-29T10:34:30;102753.09;;;2.71;100.00
69306;BME280;56427;51.580;4.656;2023-01-29T10:36:58;102760.63;;;2.78;100.00
69306;BME280;56427;51.580;4.656;2023-01-29T10:39:25;102753.94;;;2.70;100.00
69306;BME280;56427;51.580;4.656;2023-01-29T10:42:08;102753.69;;;2.83;100.00
69306;BME280;56427;51.580;4.656;2023-01-29T10:50:44;102738.16;;;2.90;100.00
69306;BME280;56427;51.580;4.656;2023-01-29T10:53:37;102735.91;;;2.75;100.00
69306;BME280;56427;51.580;4.656;2023-01-29T11:01:14;102712.81;;;2.76;100.00
69306;BME280;56427;51.580;4.656;2023-01-29T11:03:40;102714.53;;;2.74;100.00
69306;BME280;56427;51.580;4.656;2023-01-29T11:06:14;102718.56;;;2.88;100.00
69306;BME280;56427;51.580;4.656;2023-01-29T11:11:52;102713.19;;;2.99;100.00
69306;BME280;56427;51.580;4.656;2023-01-29T11:14:28;102707.63;;;3.19;100.00
69306;BME280;56427;51.580;4.656;2023-01-29T11:16:55;102690.59;;;3.16;100.00
69306;BME280;56427;51.580;4.656;2023-01-29T11:19:36;102696.47;;;3.21;100.00
69306;BME280;56427;51.580;4.656;2023-01-29T11:22:02;102686.72;;;3.37;100.00
69306;BME280;56427;51.580;4.656;2023-01-29T11:24:29;102674.34;;;3.16;100.00
69306;BME280;56427;51.580;4.656;2023-01-29T11:26:57;102677.50;;;3.27;100.00
69306;BME280;56427;51.580;4.656;2023-01-29T11:31:52;102669.47;;;3.42;100.00
69306;BME280;56427;51.580;4.656;2023-01-29T11:34:20;102660.25;;;3.34;100.00
69306;BME280;56427;51.580;4.656;2023-01-29T11:37:04;102655.31;;;3.26;100.00
69306;BME280;56427;51.580;4.656;2023-01-29T11:39:43;102649.22;;;3.30;100.00
69306;BME280;56427;51.580;4.656;2023-01-29T11:42:18;102631.34;;;3.25;100.00
69306;BME280;56427;51.580;4.656;2023-01-29T11:44:44;102644.88;;;3.32;100.00
69306;BME280;56427;51.580;4.656;2023-01-29T11:49:43;102645.53;;;3.40;100.00
69306;BME280;56427;51.580;4.656;2023-01-29T11:52:09;102649.13;;;3.35;100.00
69306;BME280;56427;51.580;4.656;2023-01-29T11:54:43;102654.97;;;3.40;100.00
69306;BME280;56427;51.580;4.656;2023-01-29T11:59:49;102645.19;;;3.56;100.00
69306;BME280;56427;51.580;4.656;2023-01-29T12:02:22;102642.03;;;3.79;100.00
69306;BME280;56427;51.580;4.656;2023-01-29T12:04:52;102637.38;;;3.60;100.00
69306;BME280;56427;51.580;4.656;2023-01-29T12:07:18;102627.72;;;3.70;100.00
69306;BME280;56427;51.580;4.656;2023-01-29T12:09:52;102621.47;;;3.80;100.00
69306;BME280;56427;51.580;4.656;2023-01-29T12:12:32;102625.47;;;3.91;100.00
69306;BME280;56427;51.580;4.656;2023-01-29T12:15:16;102607.38;;;3.95;100.00
69306;BME280;56427;51.580;4.656;2023-01-29T12:17:49;102602.75;;;4.08;100.00
69306;BME280;56427;51.580;4.656;2023-01-29T12:20:21;102595.75;;;4.13;100.00
69306;BME280;56427;51.580;4.656;2023-01-29T12:23:43;102597.22;;;4.22;100.00
69306;BME280;56427;51.580;4.656;2023-01-29T12:25:51;102592.06;;;4.22;100.00
69306;BME280;56427;51.580;4.656;2023-01-29T12:31:22;102580.44;;;4.09;100.00
69306;BME280;56427;51.580;4.656;2023-01-29T12:33:54;102573.69;;;4.04;100.00
69306;BME280;56427;51.580;4.656;2023-01-29T12:37:02;102562.66;;;4.01;100.00
69306;BME280;56427;51.580;4.656;2023-01-29T12:39:34;102562.38;;;4.12;100.00
69306;BME280;56427;51.580;4.656;2023-01-29T12:42:11;102549.94;;;3.96;100.00
69306;BME280;56427;51.580;4.656;2023-01-29T12:44:43;102553.41;;;3.95;100.00
69306;BME280;56427;51.580;4.656;2023-01-29T12:47:40;102549.94;;;3.96;100.00
69306;BME280;56427;51.580;4.656;2023-01-29T12:55:19;102541.63;;;3.88;100.00
69306;BME280;56427;51.580;4.656;2023-01-29T12:57:52;102535.47;;;3.94;100.00
69306;BME280;56427;51.580;4.656;2023-01-29T13:00:24;102520.56;;;4.07;100.00
69306;BME280;56427;51.580;4.656;2023-01-29T13:08:07;102515.31;;;4.11;100.00
69306;BME280;56427;51.580;4.656;2023-01-29T13:10:46;102501.88;;;4.01;100.00
69306;BME280;56427;51.580;4.656;2023-01-29T13:13:34;102500.13;;;4.02;100.00
69306;BME280;56427;51.580;4.656;2023-01-29T13:16:02;102479.59;;;4.02;100.00
69306;BME280;56427;51.580;4.656;2023-01-29T13:21:01;102477.59;;;4.12;100.00
69306;BME280;56427;51.580;4.656;2023-01-29T13:23:33;102466.78;;;4.00;100.00
69306;BME280;56427;51.580;4.656;2023-01-29T13:26:00;102467.22;;;4.15;100.00
69306;BME280;56427;51.580;4.656;2023-01-29T13:28:26;102469.88;;;4.12;100.00
69306;BME280;56427;51.580;4.656;2023-01-29T13:33:51;102450.44;;;4.03;100.00
69306;BME280;56427;51.580;4.656;2023-01-29T13:36:23;102449.41;;;4.09;100.00
69306;BME280;56427;51.580;4.656;2023-01-29T13:39:15;102449.50;;;4.05;100.00
69306;BME280;56427;51.580;4.656;2023-01-29T13:41:43;102450.16;;;4.12;100.00
69306;BME280;56427;51.580;4.656;2023-01-29T13:44:31;102439.88;;;4.12;100.00
69306;BME280;56427;51.580;4.656;2023-01-29T13:47:00;102439.75;;;4.17;100.00
69306;BME280;56427;51.580;4.656;2023-01-29T13:49:36;102429.47;;;4.17;100.00
69306;BME280;56427;51.580;4.656;2023-01-29T13:52:31;102426.94;;;4.15;100.00
69306;BME280;56427;51.580;4.656;2023-01-29T13:55:02;102428.59;;;4.18;100.00
69306;BME280;56427;51.580;4.656;2023-01-29T13:57:54;102417.41;;;4.19;100.00
69306;BME280;56427;51.580;4.656;2023-01-29T14:08:01;102412.69;;;4.33;100.00
69306;BME280;56427;51.580;4.656;2023-01-29T14:10:32;102415.31;;;4.32;100.00
69306;BME280;56427;51.580;4.656;2023-01-29T14:15:33;102410.56;;;4.19;100.00
69306;BME280;56427;51.580;4.656;2023-01-29T14:18:17;102417.66;;;4.11;100.00
69306;BME280;56427;51.580;4.656;2023-01-29T14:23:34;102417.34;;;4.20;100.00
69306;BME280;56427;51.580;4.656;2023-01-29T14:26:03;102407.91;;;4.21;100.00
69306;BME280;56427;51.580;4.656;2023-01-29T14:28:31;102415.91;;;4.12;100.00
69306;BME280;56427;51.580;4.656;2023-01-29T14:30:58;102408.22;;;4.12;100.00
69306;BME280;56427;51.580;4.656;2023-01-29T14:33:33;102394.53;;;4.11;100.00
69306;BME280;56427;51.580;4.656;2023-01-29T14:36:04;102401.34;;;4.12;100.00
69306;BME280;56427;51.580;4.656;2023-01-29T14:38:30;102403.03;;;4.13;100.00
69306;BME280;56427;51.580;4.656;2023-01-29T14:41:28;102382.59;;;4.09;100.00
69306;BME280;56427;51.580;4.656;2023-01-29T14:46:57;102396.59;;;4.00;100.00
69306;BME280;56427;51.580;4.656;2023-01-29T14:49:55;102389.56;;;4.05;100.00
69306;BME280;56427;51.580;4.656;2023-01-29T14:52:25;102386.75;;;4.13;100.00
69306;BME280;56427;51.580;4.656;2023-01-29T14:54:52;102382.94;;;3.98;100.00
69306;BME280;56427;51.580;4.656;2023-01-29T14:57:22;102390.75;;;3.95;100.00
69306;BME280;56427;51.580;4.656;2023-01-29T14:59:55;102385.75;;;3.90;100.00